createdAt,value
2022-08-20T00:02:15.528Z,19.29
2022-08-20T00:04:44.156Z,19.27
2022-08-20T00:07:12.938Z,19.25
2022-08-20T00:09:42.889Z,19.23
2022-08-20T00:12:14.712Z,19.20
2022-08-20T00:14:43.144Z,19.17
2022-08-20T00:17:11.607Z,19.15
2022-08-20T00:19:40.212Z,19.15
2022-08-20T00:22:08.647Z,19.13
2022-08-20T00:24:36.999Z,19.11
2022-08-20T00:27:05.436Z,19.10
2022-08-20T00:29:33.971Z,19.08
2022-08-20T00:32:02.601Z,19.07
2022-08-20T00:34:31.282Z,19.05
2022-08-20T00:38:00.738Z,19.05
2022-08-20T00:40:39.674Z,19.03
2022-08-20T00:43:26.358Z,19.03
2022-08-20T00:45:56.492Z,19.03
2022-08-20T00:48:32.388Z,19.03
2022-08-20T00:51:27.287Z,19.03
2022-08-20T00:54:07.500Z,19.03
2022-08-20T00:56:36.348Z,19.03
2022-08-20T00:59:11.344Z,19.02
2022-08-20T01:01:55.288Z,19.03
2022-08-20T01:04:28.450Z,19.03
2022-08-20T01:06:57.097Z,19.02
2022-08-20T01:09:50.348Z,19.02
2022-08-20T01:12:16.577Z,19.02
2022-08-20T01:14:46.682Z,19.02
2022-08-20T01:17:25.399Z,19.02
2022-08-20T01:20:01.748Z,19.00
2022-08-20T01:23:13.889Z,19.00
2022-08-20T01:25:50.621Z,19.00
2022-08-20T01:28:25.500Z,18.98
2022-08-20T01:30:56.777Z,18.99
2022-08-20T01:33:26.180Z,19.00
2022-08-20T01:35:55.064Z,19.00
2022-08-20T01:38:23.980Z,19.00
2022-08-20T01:41:28.378Z,19.01
2022-08-20T01:43:58.442Z,19.00
2022-08-20T01:46:43.994Z,19.00
2022-08-20T01:49:30.159Z,19.01
2022-08-20T01:52:03.648Z,19.00
2022-08-20T01:54:34.969Z,19.01
2022-08-20T01:57:07.832Z,19.01
2022-08-20T01:59:36.298Z,19.02
2022-08-20T02:02:05.526Z,19.02
2022-08-20T02:04:34.290Z,19.04
2022-08-20T02:07:06.655Z,19.05
2022-08-20T02:09:39.284Z,19.04
2022-08-20T02:12:09.798Z,19.02
2022-08-20T02:14:44.730Z,19.04
2022-08-20T02:17:15.149Z,19.04
2022-08-20T02:19:48.243Z,19.05
2022-08-20T02:22:36.068Z,19.06
2022-08-20T02:25:08.898Z,19.04
2022-08-20T02:27:39.107Z,19.04
2022-08-20T02:30:20.006Z,19.03
2022-08-20T02:33:01.597Z,19.04
2022-08-20T02:35:32.348Z,19.05
2022-08-20T02:38:02.723Z,19.07
2022-08-20T02:40:32.594Z,19.07
2022-08-20T02:43:04.978Z,19.08
2022-08-20T02:45:38.505Z,19.08
2022-08-20T02:48:07.142Z,19.08
2022-08-20T02:50:35.535Z,19.08
2022-08-20T02:53:03.985Z,19.08
2022-08-20T02:55:32.534Z,19.07
2022-08-20T02:58:01.904Z,19.07
2022-08-20T03:00:38.444Z,19.08
2022-08-20T03:03:09.219Z,19.06
2022-08-20T03:05:44.032Z,19.07
2022-08-20T03:08:14.703Z,19.07
2022-08-20T03:10:45.952Z,19.06
2022-08-20T03:13:15.499Z,19.05
2022-08-20T03:15:58.819Z,19.06
2022-08-20T03:18:33.089Z,19.06
2022-08-20T03:21:02.447Z,19.08
2022-08-20T03:23:32.121Z,19.10
2022-08-20T03:26:02.114Z,19.10
2022-08-20T03:28:30.851Z,19.11
2022-08-20T03:31:00.117Z,19.12
2022-08-20T03:33:30.064Z,19.12
2022-08-20T03:35:59.615Z,19.12
2022-08-20T03:38:32.310Z,19.13
2022-08-20T03:41:02.551Z,19.13
2022-08-20T03:43:31.748Z,19.13
2022-08-20T03:46:00.728Z,19.11
2022-08-20T03:48:29.570Z,19.11
2022-08-20T03:51:00.820Z,19.12
2022-08-20T03:53:31.916Z,19.10
2022-08-20T03:56:04.680Z,19.11
2022-08-20T03:58:36.518Z,19.10
2022-08-20T04:01:10.653Z,19.09
2022-08-20T04:03:58.724Z,19.07
2022-08-20T04:06:29.242Z,19.05
2022-08-20T04:08:58.273Z,19.05
2022-08-20T04:11:27.069Z,19.05
2022-08-20T04:13:55.515Z,19.05
2022-08-20T04:16:24.083Z,19.05
2022-08-20T04:19:01.730Z,19.06
2022-08-20T04:21:32.877Z,19.06
2022-08-20T04:24:02.531Z,19.04
2022-08-20T04:26:31.434Z,19.05
2022-08-20T04:29:00.171Z,19.06
2022-08-20T04:31:33.713Z,19.04
2022-08-20T04:34:04.045Z,19.07
2022-08-20T04:36:32.911Z,19.06
2022-08-20T04:39:01.309Z,19.07
2022-08-20T04:41:29.015Z,19.08
2022-08-20T04:43:58.269Z,19.08
2022-08-20T04:46:28.914Z,19.07
2022-08-20T04:48:58.159Z,19.08
2022-08-20T04:51:27.085Z,19.08
2022-08-20T04:53:56.400Z,19.08
2022-08-20T04:56:29.271Z,19.08
2022-08-20T04:59:02.148Z,19.09
2022-08-20T05:01:30.840Z,19.09
2022-08-20T05:04:00.903Z,19.10
2022-08-20T05:06:32.966Z,19.09
2022-08-20T05:09:02.076Z,19.10
2022-08-20T05:11:36.099Z,19.10
2022-08-20T05:14:10.180Z,19.11
2022-08-20T05:16:41.749Z,19.11
2022-08-20T05:19:13.226Z,19.10
2022-08-20T05:21:41.905Z,19.07
2022-08-20T05:24:12.131Z,19.07
2022-08-20T05:26:40.771Z,19.08
2022-08-20T05:29:09.249Z,19.08
2022-08-20T05:31:38.511Z,19.10
2022-08-20T05:34:12.509Z,19.10
2022-08-20T05:36:49.324Z,19.10
2022-08-20T05:39:22.427Z,19.10
2022-08-20T05:41:51.704Z,19.09
2022-08-20T05:44:20.902Z,19.10
2022-08-20T05:46:49.569Z,19.11
2022-08-20T05:49:22.593Z,19.11
2022-08-20T05:51:52.256Z,19.10
2022-08-20T05:54:20.877Z,19.10
2022-08-20T05:56:49.304Z,19.11
2022-08-20T05:59:21.087Z,19.11
2022-08-20T06:01:52.854Z,19.10
2022-08-20T06:04:27.929Z,19.10
2022-08-20T06:07:05.963Z,19.08
2022-08-20T06:09:36.353Z,19.09
2022-08-20T06:12:08.899Z,19.08
2022-08-20T06:14:37.388Z,19.08
2022-08-20T06:17:18.706Z,19.08
2022-08-20T06:19:50.766Z,19.07
2022-08-20T06:22:26.778Z,19.08
2022-08-20T06:24:56.101Z,19.07
2022-08-20T06:27:25.149Z,19.08
2022-08-20T06:29:53.857Z,19.09
2022-08-20T06:32:28.723Z,19.08
2022-08-20T06:35:03.701Z,19.10
2022-08-20T06:37:33.644Z,19.10
2022-08-20T06:40:11.645Z,19.10
2022-08-20T06:42:48.115Z,19.12
2022-08-20T06:45:24.519Z,19.14
2022-08-20T06:47:58.061Z,19.15
2022-08-20T06:50:43.178Z,19.14
2022-08-20T06:53:19.498Z,19.17
2022-08-20T06:55:52.371Z,19.18
2022-08-20T06:58:37.115Z,19.19
2022-08-20T07:01:10.728Z,19.21
2022-08-20T07:03:54.685Z,19.21
2022-08-20T07:06:27.679Z,19.23
2022-08-20T07:08:56.772Z,19.24
2022-08-20T07:11:28.256Z,19.25
2022-08-20T07:13:58.829Z,19.23
2022-08-20T07:16:27.423Z,19.24
2022-08-20T07:18:55.900Z,19.24
2022-08-20T07:21:24.306Z,19.24
2022-08-20T07:23:53.134Z,19.27
2022-08-20T07:26:21.602Z,19.28
2022-08-20T07:28:50.119Z,19.30
2022-08-20T07:31:36.485Z,19.32
2022-08-20T07:34:05.333Z,19.34
2022-08-20T07:36:35.449Z,19.38
2022-08-20T07:39:05.843Z,19.43
2022-08-20T07:41:34.884Z,19.43
2022-08-20T07:44:04.648Z,19.46
2022-08-20T07:46:33.189Z,19.47
2022-08-20T07:49:01.590Z,19.45
2022-08-20T07:51:29.992Z,19.46
2022-08-20T07:54:00.175Z,19.45
2022-08-20T07:56:28.631Z,19.46
2022-08-20T07:59:01.573Z,19.46
2022-08-20T08:01:32.792Z,19.46
2022-08-20T08:04:01.625Z,19.47
2022-08-20T08:06:31.760Z,19.45
2022-08-20T08:09:08.195Z,19.45
2022-08-20T08:11:40.152Z,19.41
2022-08-20T08:14:13.251Z,19.43
2022-08-20T08:16:45.696Z,19.44
2022-08-20T08:19:16.563Z,19.46
2022-08-20T08:21:45.386Z,19.47
2022-08-20T08:24:19.915Z,19.49
2022-08-20T08:26:50.850Z,19.46
2022-08-20T08:29:19.336Z,19.48
2022-08-20T08:31:47.738Z,19.49
2022-08-20T08:34:16.185Z,19.50
2022-08-20T08:36:45.508Z,19.51
2022-08-20T08:39:13.932Z,19.53
2022-08-20T08:41:49.993Z,19.54
2022-08-20T08:44:27.612Z,19.54
2022-08-20T08:47:19.512Z,19.56
2022-08-20T08:49:49.017Z,19.58
2022-08-20T08:52:26.709Z,19.61
2022-08-20T08:54:59.440Z,19.63
2022-08-20T08:57:29.049Z,19.65
2022-08-20T09:00:11.440Z,19.65
2022-08-20T09:02:42.546Z,19.66
2022-08-20T09:05:18.148Z,19.65
2022-08-20T09:07:54.091Z,19.66
2022-08-20T09:10:23.542Z,19.66
2022-08-20T09:12:52.402Z,19.68
2022-08-20T09:15:22.380Z,19.70
2022-08-20T09:17:51.480Z,19.71
2022-08-20T09:20:20.031Z,19.74
2022-08-20T09:22:51.547Z,19.76
2022-08-20T09:25:20.906Z,19.77
2022-08-20T09:27:49.336Z,19.78
2022-08-20T09:30:19.737Z,19.80
2022-08-20T09:32:48.848Z,19.83
2022-08-20T09:35:17.337Z,19.87
2022-08-20T09:37:46.977Z,19.88
2022-08-20T09:40:21.107Z,19.90
2022-08-20T09:42:50.564Z,19.91
2022-08-20T09:45:19.520Z,19.93
2022-08-20T09:47:55.062Z,19.96
2022-08-20T09:50:26.662Z,19.98
2022-08-20T09:52:56.960Z,20.02
2022-08-20T09:55:46.943Z,20.05
2022-08-20T09:58:34.041Z,20.10
2022-08-20T10:01:14.992Z,20.14
2022-08-20T10:03:44.631Z,20.16
2022-08-20T10:06:14.825Z,20.19
2022-08-20T10:08:43.844Z,20.20
2022-08-20T10:11:12.234Z,20.23
2022-08-20T10:13:40.812Z,20.25
2022-08-20T10:16:09.328Z,20.28
2022-08-20T10:18:38.008Z,20.27
2022-08-20T10:21:12.651Z,20.28
2022-08-20T10:23:41.239Z,20.27
2022-08-20T10:26:11.176Z,20.26
2022-08-20T10:28:39.965Z,20.27
2022-08-20T10:31:12.861Z,20.27
2022-08-20T10:33:42.989Z,20.25
2022-08-20T10:36:16.427Z,20.26
2022-08-20T10:38:45.591Z,20.24
2022-08-20T10:41:14.175Z,20.25
2022-08-20T10:43:42.600Z,20.27
2022-08-20T10:46:11.144Z,20.31
2022-08-20T10:48:40.263Z,20.34
2022-08-20T10:51:08.712Z,20.38
2022-08-20T10:53:37.524Z,20.42
2022-08-20T10:56:06.049Z,20.46
2022-08-20T10:58:39.288Z,20.50
2022-08-20T11:01:08.659Z,20.53
2022-08-20T11:03:37.196Z,20.58
2022-08-20T11:06:05.685Z,20.61
2022-08-20T11:08:35.992Z,20.64
2022-08-20T11:11:06.105Z,20.68
2022-08-20T11:13:36.185Z,20.72
2022-08-20T11:16:05.573Z,20.77
2022-08-20T11:18:34.192Z,20.81
2022-08-20T11:21:02.565Z,20.87
2022-08-20T11:23:31.013Z,20.91
2022-08-20T11:26:01.999Z,20.89
2022-08-20T11:28:33.238Z,20.90
2022-08-20T11:31:02.647Z,20.94
2022-08-20T11:33:31.125Z,20.99
2022-08-20T11:35:59.535Z,21.00
2022-08-20T11:38:28.091Z,21.04
2022-08-20T11:40:56.619Z,21.05
2022-08-20T11:43:25.121Z,21.06
2022-08-20T11:45:57.119Z,21.13
2022-08-20T11:48:25.897Z,21.19
2022-08-20T11:50:54.308Z,21.24
2022-08-20T11:53:22.727Z,21.31
2022-08-20T11:55:51.351Z,21.34
2022-08-20T11:58:20.159Z,21.35
2022-08-20T12:00:48.616Z,21.37
2022-08-20T12:03:17.225Z,21.38
2022-08-20T12:05:47.214Z,21.43
2022-08-20T12:08:26.731Z,21.44
2022-08-20T12:10:57.647Z,21.46
2022-08-20T12:13:30.734Z,21.51
2022-08-20T12:16:16.301Z,21.57
2022-08-20T12:18:44.756Z,21.61
2022-08-20T12:21:13.406Z,21.59
2022-08-20T12:23:42.307Z,21.58
2022-08-20T12:26:10.860Z,21.55
2022-08-20T12:28:39.280Z,21.49
2022-08-20T12:31:07.898Z,21.53
2022-08-20T12:33:36.472Z,21.55
2022-08-20T12:36:05.315Z,21.53
2022-08-20T12:38:33.794Z,21.57
2022-08-20T12:41:02.638Z,21.61
2022-08-20T12:43:31.086Z,21.63
2022-08-20T12:45:59.486Z,21.66
2022-08-20T12:48:27.867Z,21.69
2022-08-20T12:50:56.343Z,21.74
2022-08-20T12:53:24.864Z,21.77
2022-08-20T12:55:53.282Z,21.81
2022-08-20T12:58:21.668Z,21.85
2022-08-20T13:00:51.190Z,21.89
2022-08-20T13:03:21.401Z,21.94
2022-08-20T13:05:50.824Z,21.96
2022-08-20T13:08:19.639Z,21.93
2022-08-20T13:10:48.303Z,21.88
2022-08-20T13:13:20.407Z,21.88
2022-08-20T13:15:51.387Z,21.87
2022-08-20T13:18:20.046Z,21.90
2022-08-20T13:20:48.909Z,21.95
2022-08-20T13:23:17.498Z,21.95
2022-08-20T13:25:45.870Z,21.89
2022-08-20T13:28:14.295Z,21.79
2022-08-20T13:30:42.744Z,21.82
2022-08-20T13:33:11.251Z,21.83
2022-08-20T13:35:39.759Z,21.79
2022-08-20T13:38:08.169Z,21.80
2022-08-20T13:40:36.625Z,21.78
2022-08-20T13:43:07.415Z,21.72
2022-08-20T13:45:37.362Z,21.67
2022-08-20T13:48:07.556Z,21.66
2022-08-20T13:50:43.772Z,21.59
2022-08-20T13:53:15.608Z,21.59
2022-08-20T13:55:45.438Z,21.53
2022-08-20T13:58:13.952Z,21.53
2022-08-20T14:00:42.363Z,21.52
2022-08-20T14:03:10.810Z,21.45
2022-08-20T14:05:40.318Z,21.41
2022-08-20T14:08:13.078Z,21.40
2022-08-20T14:10:42.929Z,21.33
2022-08-20T14:13:15.307Z,21.32
2022-08-20T14:15:44.430Z,21.25
2022-08-20T14:18:13.318Z,21.26
2022-08-20T14:20:42.337Z,21.24
2022-08-20T14:23:13.972Z,21.24
2022-08-20T14:25:42.698Z,21.20
2022-08-20T14:28:23.756Z,21.21
2022-08-20T14:30:52.871Z,21.16
2022-08-20T14:33:22.629Z,21.13
2022-08-20T14:35:51.111Z,21.17
2022-08-20T14:38:19.714Z,21.20
2022-08-20T14:40:50.189Z,21.19
2022-08-20T14:43:18.699Z,21.22
2022-08-20T14:45:47.111Z,21.25
2022-08-20T14:48:15.968Z,21.24
2022-08-20T14:50:44.597Z,21.22
2022-08-20T14:53:12.746Z,21.24
2022-08-20T14:55:41.399Z,21.21
2022-08-20T14:58:12.601Z,21.25
2022-08-20T15:00:41.509Z,21.24
2022-08-20T15:03:10.098Z,21.26
2022-08-20T15:05:39.976Z,21.26
2022-08-20T15:08:10.776Z,21.24
2022-08-20T15:10:40.268Z,21.27
2022-08-20T15:13:09.377Z,21.26
2022-08-20T15:15:38.511Z,21.25
2022-08-20T15:18:07.733Z,21.22
2022-08-20T15:20:38.113Z,21.22
2022-08-20T15:23:06.984Z,21.25
2022-08-20T15:25:37.912Z,21.27
2022-08-20T15:28:09.402Z,21.27
2022-08-20T15:30:41.025Z,21.23
2022-08-20T15:33:11.372Z,21.23
2022-08-20T15:35:39.875Z,21.21
2022-08-20T15:38:08.481Z,21.20
2022-08-20T15:40:36.956Z,21.20
2022-08-20T15:43:06.370Z,21.19
2022-08-20T15:45:36.187Z,21.15
2022-08-20T15:48:17.697Z,21.14
2022-08-20T15:51:12.848Z,21.09
2022-08-20T15:53:49.377Z,21.06
2022-08-20T15:56:50.842Z,20.99
2022-08-20T16:00:00.835Z,20.96
2022-08-20T16:03:19.153Z,20.93
2022-08-20T16:06:03.250Z,20.90
2022-08-20T16:08:53.114Z,20.76
2022-08-20T16:12:00.076Z,20.66
2022-08-20T16:14:31.973Z,20.55
2022-08-20T16:17:09.660Z,20.24
2022-08-20T16:19:50.125Z,19.94
2022-08-20T16:22:20.281Z,19.77
2022-08-20T16:24:48.909Z,19.66
2022-08-20T16:27:31.571Z,19.58
2022-08-20T16:30:21.906Z,19.49
2022-08-20T16:33:03.383Z,19.45
2022-08-20T16:35:51.957Z,19.41
2022-08-20T16:38:21.214Z,19.38
2022-08-20T16:40:57.822Z,19.37
2022-08-20T16:43:42.170Z,19.38
2022-08-20T16:46:16.505Z,19.38
2022-08-20T16:49:00.147Z,19.38
2022-08-20T16:51:51.925Z,19.36
2022-08-20T16:54:29.439Z,19.36
2022-08-20T16:57:04.682Z,19.36
2022-08-20T16:59:33.977Z,19.37
2022-08-20T17:02:12.584Z,19.31
2022-08-20T17:04:59.355Z,19.30
2022-08-20T17:07:46.487Z,19.30
2022-08-20T17:10:23.220Z,19.27
2022-08-20T17:13:05.435Z,19.25
2022-08-20T17:15:36.817Z,19.22
2022-08-20T17:18:33.824Z,19.23
2022-08-20T17:21:29.936Z,19.23
2022-08-20T17:24:28.521Z,19.21
2022-08-20T17:27:10.395Z,19.20
2022-08-20T17:29:52.787Z,19.18
2022-08-20T17:32:28.928Z,19.17
2022-08-20T17:35:00.894Z,19.18
2022-08-20T17:37:40.615Z,19.17
2022-08-20T17:40:29.449Z,19.17
2022-08-20T17:43:08.569Z,19.18
2022-08-20T17:45:45.355Z,19.22
2022-08-20T17:48:42.910Z,19.20
2022-08-20T17:51:21.649Z,19.23
2022-08-20T17:54:13.151Z,19.25
2022-08-20T17:56:44.735Z,19.28
2022-08-20T18:00:00.254Z,19.29
2022-08-20T18:02:20.968Z,19.31
2022-08-20T18:04:50.595Z,19.32
2022-08-20T18:07:33.566Z,19.34
2022-08-20T18:10:28.516Z,19.33
2022-08-20T18:13:17.734Z,19.33
2022-08-20T18:15:54.098Z,19.33
2022-08-20T18:18:56.464Z,19.33
2022-08-20T18:22:05.515Z,19.33
2022-08-20T18:25:10.158Z,19.32
2022-08-20T18:27:48.402Z,19.31
2022-08-20T18:30:26.371Z,19.29
2022-08-20T18:33:07.772Z,19.27
2022-08-20T18:35:46.352Z,19.26
2022-08-20T18:38:31.421Z,19.25
2022-08-20T18:41:10.218Z,19.23
2022-08-20T18:43:39.653Z,19.23
2022-08-20T18:46:24.094Z,19.23
2022-08-20T18:49:06.107Z,19.23
2022-08-20T18:51:42.707Z,19.23
2022-08-20T18:54:20.920Z,19.24
2022-08-20T18:56:49.523Z,19.24
2022-08-20T18:59:20.233Z,19.24
2022-08-20T19:01:50.571Z,19.24
2022-08-20T19:04:34.153Z,19.24
2022-08-20T19:07:06.834Z,19.24
2022-08-20T19:09:39.766Z,19.26
2022-08-20T19:12:26.680Z,19.26
2022-08-20T19:15:07.464Z,19.26
2022-08-20T19:17:41.638Z,19.27
2022-08-20T19:20:26.562Z,19.28
2022-08-20T19:23:01.946Z,19.31
2022-08-20T19:25:31.996Z,19.33
2022-08-20T19:28:23.795Z,19.32
2022-08-20T19:30:53.477Z,19.34
2022-08-20T19:33:32.740Z,19.33
2022-08-20T19:36:28.064Z,19.35
2022-08-20T19:39:04.568Z,19.36
2022-08-20T19:41:45.012Z,19.36
2022-08-20T19:44:13.529Z,19.36
2022-08-20T19:46:48.936Z,19.37
2022-08-20T19:49:49.180Z,19.38
2022-08-20T19:52:52.083Z,19.39
2022-08-20T19:55:38.677Z,19.39
2022-08-20T19:58:26.248Z,19.39
2022-08-20T20:00:57.483Z,19.37
2022-08-20T20:03:35.645Z,19.36
2022-08-20T20:06:18.925Z,19.33
2022-08-20T20:09:08.644Z,19.33
2022-08-20T20:11:43.460Z,19.33
2022-08-20T20:14:15.033Z,19.34
2022-08-20T20:16:44.371Z,19.34
2022-08-20T20:19:30.147Z,19.32
2022-08-20T20:22:26.325Z,19.25
2022-08-20T20:25:14.474Z,19.24
2022-08-20T20:27:46.756Z,19.23
2022-08-20T20:30:15.688Z,19.18
2022-08-20T20:32:49.212Z,19.17
2022-08-20T20:35:31.151Z,19.17
2022-08-20T20:38:04.674Z,19.18
2022-08-20T20:40:46.260Z,19.15
2022-08-20T20:43:36.340Z,19.18
2022-08-20T20:46:15.294Z,19.18
2022-08-20T20:48:51.847Z,19.19
2022-08-20T20:51:37.830Z,19.21
2022-08-20T20:54:28.829Z,19.21
2022-08-20T20:57:06.757Z,19.24
2022-08-20T20:59:37.466Z,19.26
2022-08-20T21:02:06.112Z,19.26
2022-08-20T21:04:34.871Z,19.27
2022-08-20T21:07:16.147Z,19.27
2022-08-20T21:09:44.851Z,19.26
2022-08-20T21:12:14.338Z,19.24
2022-08-20T21:14:43.098Z,19.23
2022-08-20T21:17:20.826Z,19.15
2022-08-20T21:19:51.057Z,19.14
2022-08-20T21:22:21.400Z,19.17
2022-08-20T21:24:51.660Z,19.17
2022-08-20T21:27:27.800Z,19.20
2022-08-20T21:29:56.597Z,19.20
2022-08-20T21:32:25.075Z,19.21
2022-08-20T21:34:53.648Z,19.23
2022-08-20T21:37:22.156Z,19.24
2022-08-20T21:39:50.742Z,19.25
2022-08-20T21:42:29.086Z,19.26
2022-08-20T21:44:59.553Z,19.27
2022-08-20T21:47:28.324Z,19.28
2022-08-20T21:49:56.991Z,19.28
2022-08-20T21:52:25.459Z,19.28
2022-08-20T21:54:54.323Z,19.27
2022-08-20T21:57:27.626Z,19.28
2022-08-20T21:59:56.388Z,19.27
2022-08-20T22:02:26.057Z,19.25
2022-08-20T22:04:55.672Z,19.23
2022-08-20T22:07:24.215Z,19.20
2022-08-20T22:09:52.704Z,19.20
2022-08-20T22:12:24.989Z,19.17
2022-08-20T22:14:53.790Z,19.16
2022-08-20T22:17:22.197Z,19.13
2022-08-20T22:19:51.175Z,19.11
2022-08-20T22:22:21.662Z,19.10
2022-08-20T22:24:50.137Z,19.07
2022-08-20T22:27:18.802Z,19.05
2022-08-20T22:29:47.317Z,19.02
2022-08-20T22:32:15.861Z,19.00
2022-08-20T22:34:45.925Z,18.96
2022-08-20T22:37:15.114Z,18.93
2022-08-20T22:39:43.635Z,18.90
2022-08-20T22:42:12.583Z,18.87
2022-08-20T22:44:41.462Z,18.86
2022-08-20T22:47:10.430Z,18.85
2022-08-20T22:49:41.525Z,18.85
2022-08-20T22:52:12.228Z,18.86
2022-08-20T22:54:44.687Z,18.86
2022-08-20T22:57:15.081Z,18.85
2022-08-20T22:59:53.005Z,18.84
2022-08-20T23:02:23.931Z,18.83
2022-08-20T23:04:52.403Z,18.81
2022-08-20T23:07:21.121Z,18.80
2022-08-20T23:09:49.720Z,18.78
2022-08-20T23:12:18.170Z,18.76
2022-08-20T23:14:46.660Z,18.76
2022-08-20T23:17:19.181Z,18.74
2022-08-20T23:19:49.094Z,18.70
2022-08-20T23:22:17.999Z,18.69
2022-08-20T23:24:47.066Z,18.68
2022-08-20T23:27:20.253Z,18.67
2022-08-20T23:29:48.923Z,18.66
2022-08-20T23:32:17.687Z,18.66
2022-08-20T23:34:46.469Z,18.66
2022-08-20T23:37:15.118Z,18.65
2022-08-20T23:39:46.314Z,18.60
2022-08-20T23:42:15.872Z,18.58
2022-08-20T23:44:45.324Z,18.57
2022-08-20T23:47:19.959Z,18.56
2022-08-20T23:49:48.955Z,18.55
2022-08-20T23:52:17.583Z,18.56
2022-08-20T23:54:45.962Z,18.56
2022-08-20T23:57:14.442Z,18.56
2022-08-20T23:59:43.153Z,18.55
